Time;durP1;ratioP1;P1;durP2;ratioP2;P2;SDS_P1;SDS_P2;PMS_P1;PMS_P2;Temp;Humidity;BMP_temperature;BMP_pressure;BME280_temperature;BME280_humidity;BME280_pressure;Samples;Min_cycle;Max_cycle;Signal;HPM_P1;HPM_P2
2022/08/11 00:00:42;;;;;;;7.78;2.88;;;;;;;-144.47;39.05;53088.47;5051909;28;20082;-87
2022/08/11 00:03:13;;;;;;;8.90;2.47;;;;;;;-144.47;39.14;53084.50;5054201;28;20402;-86
2022/08/11 00:05:46;;;;;;;7.63;2.72;;;;;;;-144.47;39.32;53074.56;5055331;28;20028;-86
2022/08/11 00:08:25;;;;;;;8.25;3.20;;;;;;;-144.47;39.26;53066.63;5037505;28;20463;-86
2022/08/11 00:10:57;;;;;;;8.68;3.08;;;;;;;-144.47;39.24;53044.78;5035206;28;20032;-87
2022/08/11 00:13:34;;;;;;;10.60;3.10;;;;;;;-144.47;39.23;53064.66;5045763;28;20029;-87
2022/08/11 00:16:02;;;;;;;22.63;4.72;;;;;;;-144.47;39.29;53026.91;5068817;28;20061;-87
2022/08/11 00:18:30;;;;;;;7.07;2.85;;;;;;;-144.47;39.40;53098.41;5072312;28;20031;-87
2022/08/11 00:20:59;;;;;;;11.98;2.88;;;;;;;-144.47;39.54;53072.59;5045369;28;20060;-88
2022/08/11 00:23:26;;;;;;;7.22;2.60;;;;;;;-144.47;39.56;53064.66;5017689;28;20035;-87
2022/08/11 00:25:53;;;;;;;9.50;3.15;;;;;;;-144.47;39.71;53050.75;5053537;28;20417;-87
2022/08/11 00:28:32;;;;;;;7.53;2.97;;;;;;;-144.47;39.91;53054.72;5037080;28;20059;-87
2022/08/11 00:31:03;;;;;;;6.30;2.63;;;;;;;-144.47;39.63;53074.56;5061408;28;20024;-86
2022/08/11 00:33:41;;;;;;;6.78;2.92;;;;;;;-144.47;39.79;53062.66;5053396;28;20016;-85
2022/08/11 00:36:09;;;;;;;9.25;2.58;;;;;;;-144.47;39.64;53102.38;5054590;28;20031;-86
2022/08/11 00:38:40;;;;;;;10.10;2.50;;;;;;;-144.47;39.85;53082.53;5069514;28;20033;-87
2022/08/11 00:41:24;;;;;;;5.60;2.83;;;;;;;-144.47;39.76;53074.56;5054230;28;20266;-87
2022/08/11 00:44:17;;;;;;;7.25;2.72;;;;;;;-144.47;39.71;53054.72;5041343;28;20213;-87
2022/08/11 00:46:57;;;;;;;8.90;2.65;;;;;;;-144.47;39.83;53044.78;5034333;28;20028;-87
2022/08/11 00:49:37;;;;;;;12.60;2.92;;;;;;;-144.47;39.93;53044.78;5036018;28;20056;-86
2022/08/11 00:52:43;;;;;;;7.45;2.97;;;;;;;-144.47;39.94;53050.75;5038398;28;20032;-86
2022/08/11 00:55:46;;;;;;;5.70;2.83;;;;;;;-144.47;40.09;53066.63;5035119;28;20036;-87
2022/08/11 00:58:43;;;;;;;6.03;2.88;;;;;;;-144.47;39.97;53066.63;5048418;28;20423;-87
2022/08/11 01:01:19;;;;;;;10.85;3.42;;;;;;;-144.47;39.78;53070.59;5058786;28;20027;-87
2022/08/11 01:03:57;;;;;;;6.65;3.28;;;;;;;-144.47;40.12;53084.50;5057409;28;20029;-87
2022/08/11 01:06:49;;;;;;;6.47;3.03;;;;;;;-144.47;40.04;53092.44;5046067;28;20029;-86
2022/08/11 01:09:43;;;;;;;8.88;3.10;;;;;;;-144.47;40.27;53106.34;5056990;28;20051;-87
2022/08/11 01:12:34;;;;;;;6.88;3.20;;;;;;;-144.47;40.31;53078.53;5059609;28;20021;-86
2022/08/11 01:15:41;;;;;;;14.23;3.42;;;;;;;-144.47;40.48;53092.44;5072407;28;20267;-86
2022/08/11 01:18:31;;;;;;;6.75;3.42;;;;;;;-144.47;40.85;53076.56;5064396;28;20017;-86
2022/08/11 01:21:27;;;;;;;6.82;3.15;;;;;;;-144.47;40.98;53080.53;5045932;28;20101;-86
2022/08/11 01:24:34;;;;;;;8.15;3.00;;;;;;;-144.47;41.03;53096.41;5066535;28;20029;-87
2022/08/11 01:27:28;;;;;;;7.25;3.00;;;;;;;-144.47;40.98;53100.41;5048482;28;20023;-86
2022/08/11 01:30:07;;;;;;;15.38;3.60;;;;;;;-144.47;40.88;53102.38;5056995;28;20029;-87
2022/08/11 01:33:01;;;;;;;10.13;2.85;;;;;;;-144.47;41.31;53064.66;5035418;28;20060;-86
2022/08/11 01:35:40;;;;;;;8.90;3.30;;;;;;;-144.47;41.27;53088.47;5038587;28;20043;-86
2022/08/11 01:38:43;;;;;;;7.40;3.00;;;;;;;-144.47;41.47;53088.47;5049193;28;20021;-87
2022/08/11 01:44:39;;;;;;;9.90;3.47;;;;;;;-144.47;41.61;53104.38;5060303;28;20075;-86
2022/08/11 01:50:37;;;;;;;10.40;3.88;;;;;;;-144.47;42.12;53094.44;5076236;28;20228;-87
2022/08/11 01:53:20;;;;;;;9.48;3.40;;;;;;;-144.47;42.25;53098.41;5057472;28;20051;-86
2022/08/11 01:56:06;;;;;;;12.40;3.70;;;;;;;-144.47;42.53;53120.25;5058375;28;20020;-86
2022/08/11 01:58:47;;;;;;;8.32;3.55;;;;;;;-144.47;42.77;53072.59;5062595;28;20414;-86
2022/08/11 02:01:19;;;;;;;7.40;3.15;;;;;;;-144.47;42.77;53076.56;5087723;28;20048;-86
2022/08/11 02:04:09;;;;;;;8.25;3.33;;;;;;;-144.47;42.64;53106.34;5070615;28;20029;-85
2022/08/11 02:06:55;;;;;;;7.32;3.65;;;;;;;-144.47;42.83;53102.38;5065628;28;20021;-85
2022/08/11 02:09:56;;;;;;;6.55;3.40;;;;;;;-144.47;43.05;53094.44;5047403;28;20112;-86
2022/08/11 02:12:50;;;;;;;10.68;4.00;;;;;;;-144.47;42.84;53062.66;5046728;28;20021;-86
2022/08/11 02:15:19;;;;;;;13.30;4.30;;;;;;;-144.47;42.74;53086.50;5037918;28;20033;-87
2022/08/11 02:18:12;;;;;;;9.57;4.05;;;;;;;-144.47;42.93;53074.56;5054684;28;20029;-86
2022/08/11 02:23:52;;;;;;;10.17;4.30;;;;;;;-144.47;43.35;53102.38;5065622;28;20052;-87
2022/08/11 02:26:50;;;;;;;11.20;4.00;;;;;;;-144.47;43.45;53118.28;5057463;28;20040;-87
2022/08/11 02:29:16;;;;;;;11.13;3.72;;;;;;;-144.47;43.54;53066.63;5009436;28;20487;-87
2022/08/11 02:34:55;;;;;;;8.05;3.58;;;;;;;-144.47;44.27;53098.41;5074682;28;20116;-87
2022/08/11 02:37:29;;;;;;;9.48;3.97;;;;;;;-144.47;44.36;53124.22;5057784;28;20025;-86
2022/08/11 02:39:59;;;;;;;13.77;3.75;;;;;;;-144.47;44.68;53066.63;5038106;28;20063;-87
2022/08/11 02:42:32;;;;;;;11.90;4.88;;;;;;;-144.47;44.66;53130.19;5061020;28;20025;-86
2022/08/11 02:45:18;;;;;;;14.13;4.50;;;;;;;-144.47;44.70;53086.50;5044440;28;20032;-87
2022/08/11 02:51:35;;;;;;;7.53;3.90;;;;;;;-144.47;45.32;53104.38;5062823;28;20028;-87
2022/08/11 02:54:28;;;;;;;8.40;3.92;;;;;;;-144.47;45.55;53114.31;5051672;28;20033;-87
2022/08/11 02:56:59;;;;;;;19.20;4.80;;;;;;;-144.47;45.65;53102.38;5056779;28;20033;-87
2022/08/11 02:59:50;;;;;;;12.23;4.25;;;;;;;-144.47;45.80;53090.47;5038135;28;20051;-87
2022/08/11 03:02:34;;;;;;;11.00;4.05;;;;;;;-144.47;45.93;53086.50;5046690;28;20037;-87
2022/08/11 03:05:23;;;;;;;10.82;4.20;;;;;;;-144.47;46.03;53098.41;5037381;28;20091;-86
2022/08/11 03:07:58;;;;;;;12.85;5.13;;;;;;;-144.47;46.15;53114.31;5037967;28;20040;-86
2022/08/11 03:16:53;;;;;;;10.82;4.18;;;;;;;-144.47;46.77;53108.34;5054366;28;20086;-87
2022/08/11 03:19:22;;;;;;;12.88;4.15;;;;;;;-144.47;46.72;53104.38;5076066;28;20078;-86
2022/08/11 03:22:11;;;;;;;14.23;4.28;;;;;;;-144.47;46.81;53114.31;5057508;28;20016;-86
2022/08/11 03:24:57;;;;;;;9.65;4.32;;;;;;;-144.47;46.82;53124.22;5068486;28;20029;-83
2022/08/11 03:27:30;;;;;;;7.88;4.85;;;;;;;-144.47;47.08;53132.19;5005113;28;20049;-86
2022/08/11 03:30:26;;;;;;;15.73;5.10;;;;;;;-144.47;47.05;53102.38;5050957;28;20067;-86
2022/08/11 03:36:40;;;;;;;17.85;6.50;;;;;;;-144.47;47.22;53118.28;5055042;28;20112;-87
2022/08/11 03:39:46;;;;;;;14.30;5.80;;;;;;;-144.47;47.17;53124.22;5070352;28;20031;-87
2022/08/11 03:42:21;;;;;;;13.65;5.13;;;;;;;-144.47;47.22;53088.47;5067837;28;20024;-87
2022/08/11 03:45:27;;;;;;;13.25;4.65;;;;;;;-144.47;47.19;53134.16;5080337;28;20028;-85
2022/08/11 03:48:40;;;;;;;9.13;4.38;;;;;;;-144.47;47.32;53116.28;5064910;28;20104;-87
2022/08/11 03:51:20;;;;;;;17.88;5.05;;;;;;;-144.47;47.41;53076.56;4975426;28;20113;-86
2022/08/11 03:54:23;;;;;;;13.77;4.32;;;;;;;-144.47;47.49;53144.09;5018944;28;20132;-86
2022/08/11 03:57:16;;;;;;;11.90;4.32;;;;;;;-144.47;47.55;53150.06;5065594;28;20092;-86
2022/08/11 04:00:18;;;;;;;11.00;4.70;;;;;;;-144.47;47.59;53124.22;5037800;28;20353;-87
2022/08/11 04:03:24;;;;;;;13.45;4.55;;;;;;;-144.47;47.42;53092.44;5060718;28;20017;-87
2022/08/11 04:06:10;;;;;;;11.10;4.60;;;;;;;-144.47;47.19;53118.28;5051973;28;20033;-87
2022/08/11 04:09:02;;;;;;;13.68;5.03;;;;;;;-144.47;47.28;53122.25;5062729;28;20036;-88
2022/08/11 04:19:07;;;;;;;9.88;5.55;;;;;;;-144.47;47.59;53144.09;5053099;28;20036;-87
2022/08/11 04:22:09;;;;;;;16.92;5.55;;;;;;;-144.47;47.53;53100.41;5034928;28;20036;-88
2022/08/11 04:24:48;;;;;;;14.73;5.63;;;;;;;-144.47;47.40;53102.38;5042182;28;20025;-88
2022/08/11 04:27:37;;;;;;;;;;;;;;;-144.47;47.54;53142.09;5031357;28;20117;-87
2022/08/11 04:30:25;;;;;;;8.07;4.28;;;;;;;-144.47;47.67;53122.25;5032870;28;19916;-87
2022/08/11 04:33:18;;;;;;;8.43;4.90;;;;;;;-144.47;48.11;53122.25;5034400;28;20032;-86
2022/08/11 04:37:30;;;;;;;10.30;4.60;;;;;;;-144.47;48.15;53150.06;5041240;28;20028;-88
2022/08/11 04:39:35;;;;;;;11.25;4.57;;;;;;;-144.47;48.56;53104.38;5067390;28;20071;-87
2022/08/11 04:46:17;;;;;;;14.02;5.22;;;;;;;-144.47;48.51;53138.13;5055902;28;20110;-87
2022/08/11 05:07:54;;;;;;;10.38;4.95;;;;;;;-144.47;48.37;53130.19;4958485;28;20062;-89
2022/08/11 05:10:58;;;;;;;20.65;6.13;;;;;;;-144.47;48.36;53110.31;4950577;28;20054;-87
2022/08/11 05:34:53;;;;;;;16.17;6.03;;;;;;;-144.47;49.52;53132.19;4971035;28;20126;-88
2022/08/11 05:58:40;;;;;;;14.10;6.75;;;;;;;-144.47;47.12;53080.53;5035057;28;20109;-89
2022/08/11 06:01:18;;;;;;;;;;;;;;;;;;;;;
2022/08/11 06:06:30;;;;;;;16.23;5.53;;;;;;;-144.47;46.52;53102.38;5044521;28;20367;-69
2022/08/11 06:08:58;;;;;;;19.40;5.65;;;;;;;-144.47;46.40;53110.31;5046016;28;20082;-67
2022/08/11 06:11:25;;;;;;;13.88;5.47;;;;;;;-144.47;46.30;53112.31;5041856;28;20103;-68
2022/08/11 06:13:51;;;;;;;18.08;6.60;;;;;;;-144.47;46.49;53100.41;5051702;28;20108;-70
2022/08/11 06:16:22;;;;;;;11.18;5.28;;;;;;;-144.47;46.45;53094.44;5054584;28;20047;-69
2022/08/11 06:18:49;;;;;;;13.95;6.13;;;;;;;-144.47;46.53;53080.53;5070327;22;20428;-70
2022/08/11 06:21:15;;;;;;;14.32;5.28;;;;;;;-144.47;46.40;53092.44;5071790;28;20021;-66
2022/08/11 06:23:43;;;;;;;13.00;5.07;;;;;;;-144.47;46.45;53078.53;5049566;28;20012;-66
2022/08/11 06:26:10;;;;;;;10.70;5.03;;;;;;;-144.47;46.52;53096.41;5050034;28;20023;-66
2022/08/11 06:28:38;;;;;;;53.92;10.45;;;;;;;-144.47;46.79;53152.03;5072968;28;20508;-67
2022/08/11 06:31:15;;;;;;;13.38;5.28;;;;;;;-144.47;46.60;53080.53;5073667;28;20163;-65
2022/08/11 06:34:23;;;;;;;12.63;4.93;;;;;;;-144.47;46.33;53070.59;5070401;28;20020;-67
2022/08/11 06:36:56;;;;;;;8.07;4.15;;;;;;;-144.47;46.40;53110.31;5091068;28;20028;-70
2022/08/11 06:39:43;;;;;;;13.20;5.22;;;;;;;-144.47;46.22;53052.72;5073380;28;20036;-69
2022/08/11 06:42:32;;;;;;;10.15;4.68;;;;;;;-144.47;46.07;53106.34;5071584;28;20028;-69
2022/08/11 06:45:20;;;;;;;9.40;4.50;;;;;;;-144.47;45.88;53098.41;5071026;28;20024;-67
2022/08/11 06:47:47;;;;;;;11.20;4.25;;;;;;;-144.47;45.53;53100.41;5087689;28;20468;-68
2022/08/11 06:53:04;;;;;;;15.43;4.38;;;;;;;-144.47;45.50;53052.72;5071508;28;20377;-68
2022/08/11 07:01:12;;;;;;;13.32;4.47;;;;;;;-144.47;44.95;53072.59;5071216;28;20174;-68
2022/08/11 07:03:43;;;;;;;12.20;5.35;;;;;;;-144.47;44.65;53070.59;5055922;28;20012;-68
2022/08/11 07:06:24;;;;;;;10.65;4.55;;;;;;;-144.47;44.56;53112.31;5072468;28;20090;-69
2022/08/11 07:15:41;;;;;;;24.17;6.28;;;;;;;-144.47;43.55;53094.44;5078733;28;20063;-69
2022/08/11 07:29:30;;;;;;;11.10;4.60;;;;;;;-144.47;41.25;53064.66;5091571;28;20031;-67
2022/08/11 07:32:02;;;;;;;9.85;4.00;;;;;;;-144.47;40.83;53040.81;5039573;28;20398;-68
2022/08/11 07:34:35;;;;;;;8.25;4.05;;;;;;;-144.47;40.79;53070.59;5056539;28;20107;-68
2022/08/11 07:37:16;;;;;;;12.75;4.32;;;;;;;-144.47;39.74;53056.69;5051849;28;20039;-66
2022/08/11 07:39:43;;;;;;;15.27;6.10;;;;;;;-144.47;39.20;53038.81;5053126;28;20037;-66
2022/08/11 07:42:12;;;;;;;9.73;3.83;;;;;;;-144.47;39.14;53058.69;5052177;28;20016;-66
2022/08/11 07:53:02;;;;;;;9.57;4.07;;;;;;;-144.47;39.15;53078.53;5006608;28;20521;-67
2022/08/11 07:55:33;;;;;;;14.20;4.10;;;;;;;-144.47;39.34;53040.81;5047000;28;20439;-71
2022/08/11 08:20:15;;;;;;;8.30;3.50;;;;;;;-144.47;37.43;53020.94;5054880;28;20544;-68
2022/08/11 08:22:42;;;;;;;9.80;4.05;;;;;;;-144.47;37.08;53040.81;5034306;28;20040;-68
2022/08/11 08:25:09;;;;;;;8.32;3.58;;;;;;;-144.47;37.06;53005.06;5044508;28;20085;-68
2022/08/11 08:27:37;;;;;;;14.50;5.80;;;;;;;-144.47;36.70;53056.69;5088740;28;20374;-68
2022/08/11 08:32:50;;;;;;;10.68;3.65;;;;;;;-144.47;36.16;53058.69;5043236;28;20102;-67
2022/08/11 08:35:16;;;;;;;8.30;3.33;;;;;;;-144.47;35.99;53042.78;5069400;28;20486;-68
2022/08/11 08:37:42;;;;;;;24.02;3.80;;;;;;;-144.47;36.08;52995.13;5034187;28;20035;-67
2022/08/11 08:40:08;;;;;;;9.57;4.53;;;;;;;-144.47;35.51;53015.00;5038222;28;20043;-67
2022/08/11 08:42:44;;;;;;;12.95;4.00;;;;;;;-144.47;34.88;53034.84;5089243;28;20027;-69
2022/08/11 08:45:11;;;;;;;17.38;3.60;;;;;;;-144.47;35.00;53018.97;5038781;28;20135;-66
2022/08/11 08:47:41;;;;;;;9.20;3.30;;;;;;;-144.47;34.85;53016.97;5070568;28;20534;-69
2022/08/11 08:50:12;;;;;;;10.82;3.33;;;;;;;-144.47;34.83;53030.88;5071215;28;20038;-68
2022/08/11 08:52:43;;;;;;;6.07;3.22;;;;;;;-144.47;34.37;52995.13;5037185;28;20109;-69
2022/08/11 08:55:15;;;;;;;15.18;3.20;;;;;;;-144.47;34.42;52983.22;5070720;28;20030;-67
2022/08/11 08:57:42;;;;;;;7.00;2.53;;;;;;;-144.47;33.98;53011.00;5088317;28;20028;-67
2022/08/11 09:00:09;;;;;;;6.55;2.78;;;;;;;-144.47;33.62;53050.75;5054312;28;20382;-66
2022/08/11 09:02:35;;;;;;;5.95;3.22;;;;;;;-144.47;33.62;52985.19;5071202;28;20020;-68
2022/08/11 09:05:03;;;;;;;12.40;3.60;;;;;;;-144.47;33.17;52991.16;5053720;28;20488;-69
2022/08/11 09:07:29;;;;;;;7.32;2.65;;;;;;;-144.47;33.16;53040.81;5055754;28;20115;-66
2022/08/11 09:09:57;;;;;;;7.05;2.60;;;;;;;-144.47;33.25;52981.22;5053985;28;20312;-68
2022/08/11 09:12:27;;;;;;;;;;;;;;;-144.47;33.12;53013.00;5054691;28;20021;-68
2022/08/11 09:15:00;;;;;;;8.07;2.45;;;;;;;-144.47;32.43;53007.03;5044137;28;20357;-66
2022/08/11 09:17:42;;;;;;;7.65;2.60;;;;;;;-144.47;32.08;52983.22;5087854;28;20043;-69
2022/08/11 09:20:33;;;;;;;8.80;2.55;;;;;;;-144.47;31.81;52999.09;5070900;28;20020;-69
2022/08/11 09:28:34;;;;;;;6.03;2.75;;;;;;;-144.47;32.28;53007.03;5072873;28;20034;-70
2022/08/11 09:31:01;;;;;;;9.40;3.10;;;;;;;-144.47;32.48;52977.25;5088912;28;20024;-67
2022/08/11 09:33:28;;;;;;;7.60;3.38;;;;;;;-144.47;32.36;53032.88;5045839;28;20047;-72
2022/08/11 09:35:54;;;;;;;7.22;2.85;;;;;;;-144.47;32.12;52991.16;5037600;28;20020;-70
2022/08/11 09:41:12;;;;;;;7.88;3.13;;;;;;;-144.47;31.36;52979.22;5069137;28;20027;-67
2022/08/11 09:46:31;;;;;;;8.18;2.60;;;;;;;-144.47;30.43;52967.31;5073205;28;20067;-67
2022/08/11 09:48:59;;;;;;;7.80;2.72;;;;;;;-144.47;29.58;52983.22;5089021;28;20074;-66
2022/08/11 09:51:30;;;;;;;7.72;2.53;;;;;;;-144.47;29.35;52985.19;5074650;28;20367;-68
2022/08/11 09:53:58;;;;;;;8.75;2.83;;;;;;;-144.47;29.70;52975.25;5069708;28;20525;-68
2022/08/11 09:59:08;;;;;;;7.68;2.33;;;;;;;-144.47;29.85;52949.44;5062911;28;20414;-71
2022/08/11 10:01:45;;;;;;;6.53;2.47;;;;;;;-144.47;30.35;52943.47;5074281;28;20111;-70
2022/08/11 10:04:21;;;;;;;6.68;3.05;;;;;;;-144.47;29.71;52991.16;5056938;28;20016;-70
2022/08/11 10:07:02;;;;;;;5.32;2.33;;;;;;;-144.47;29.68;52973.28;5052540;28;20397;-67
2022/08/11 10:09:42;;;;;;;7.45;2.35;;;;;;;-144.47;29.22;52981.22;5055208;28;20036;-68
2022/08/11 10:12:11;;;;;;;4.70;2.40;;;;;;;-144.47;29.22;52971.28;5058070;28;20405;-67
2022/08/11 10:17:32;;;;;;;6.57;2.28;;;;;;;-144.47;29.32;52967.31;5076444;28;20078;-67
2022/08/11 10:19:58;;;;;;;6.05;2.40;;;;;;;-144.47;29.56;52943.47;5074153;28;20027;-65
2022/08/11 10:28:11;;;;;;;8.73;2.75;;;;;;;-144.47;29.52;52973.28;5071583;28;20035;-69
2022/08/11 10:36:07;;;;;;;7.50;2.58;;;;;;;-144.47;28.71;52955.41;5072040;28;20036;-69
2022/08/11 10:38:33;;;;;;;7.00;2.33;;;;;;;-144.47;28.39;52979.22;5060791;28;20107;-70
2022/08/11 10:43:45;;;;;;;13.98;2.53;;;;;;;-144.47;28.52;52963.34;5076226;28;20106;-70
2022/08/11 10:48:57;;;;;;;16.55;2.90;;;;;;;-144.47;28.73;52959.38;5062495;28;20114;-68
2022/08/11 10:59:41;;;;;;;11.90;2.67;;;;;;;-144.47;28.65;52973.28;5091949;28;20077;-68
2022/08/11 11:02:12;;;;;;;11.40;2.50;;;;;;;-144.47;28.89;52991.16;5056972;28;20016;-68
2022/08/11 11:05:08;;;;;;;15.48;2.72;;;;;;;-144.47;28.80;52943.47;5072877;28;20396;-68
2022/08/11 11:07:42;;;;;;;13.27;2.83;;;;;;;-144.47;28.82;52967.31;5074826;28;20020;-68
2022/08/11 11:10:10;;;;;;;14.77;2.40;;;;;;;-144.47;28.72;52965.34;5071274;28;20428;-69
2022/08/11 11:18:21;;;;;;;6.40;2.08;;;;;;;-144.47;28.23;52927.59;5047454;28;20089;-70
2022/08/11 11:21:03;;;;;;;21.05;2.63;;;;;;;-144.47;27.97;52967.31;5072866;28;20036;-71
2022/08/11 11:23:34;;;;;;;6.13;2.40;;;;;;;-144.47;28.05;52947.47;5089935;28;20126;-69
2022/08/11 11:26:05;;;;;;;8.02;2.20;;;;;;;-144.47;27.96;52973.28;5091315;28;20103;-68
2022/08/11 11:28:36;;;;;;;13.07;3.00;;;;;;;-144.47;27.93;52935.53;5072651;28;20024;-66
2022/08/11 11:31:35;;;;;;;11.90;2.65;;;;;;;-144.47;28.00;52965.34;5057821;28;20033;-70
2022/08/11 11:34:35;;;;;;;12.75;3.83;;;;;;;-144.47;27.41;52943.47;5038266;28;20037;-70
2022/08/11 11:37:03;;;;;;;10.40;2.47;;;;;;;-144.47;27.10;52969.31;5066155;28;20040;-70
2022/08/11 11:39:31;;;;;;;18.63;3.70;;;;;;;-144.47;27.60;52963.34;5032496;28;20119;-70
2022/08/11 11:42:01;;;;;;;6.55;2.55;;;;;;;-144.47;27.71;52949.44;5072100;28;20015;-69
2022/08/11 11:44:28;;;;;;;9.10;2.28;;;;;;;-144.47;27.53;52969.31;5091188;28;20043;-69
2022/08/11 11:46:54;;;;;;;12.68;4.03;;;;;;;-144.47;27.53;52945.47;5090196;28;20541;-70
2022/08/11 11:49:23;;;;;;;8.25;2.30;;;;;;;-144.47;27.40;52949.44;5091142;28;20027;-69
2022/08/11 11:51:53;;;;;;;19.48;2.90;;;;;;;-144.47;27.32;52961.34;5072394;28;20107;-72
2022/08/11 11:54:23;;;;;;;7.55;2.40;;;;;;;-144.47;27.03;52959.38;5052351;28;20414;-71
2022/08/11 11:56:52;;;;;;;17.98;2.47;;;;;;;-144.47;27.09;52951.44;5051582;28;20051;-69
2022/08/11 12:02:13;;;;;;;7.15;2.55;;;;;;;-144.47;27.09;52935.53;5070209;28;20473;-66
2022/08/11 12:04:44;;;;;;;10.18;2.75;;;;;;;-144.47;27.19;52925.59;5087131;28;20031;-69
2022/08/11 12:09:57;;;;;;;10.32;2.58;;;;;;;-144.47;27.35;52973.28;5070385;28;20098;-67
2022/08/11 12:15:08;;;;;;;8.63;2.60;;;;;;;-144.47;26.92;52953.41;5090342;28;20027;-68
2022/08/11 12:20:18;;;;;;;9.82;2.40;;;;;;;-144.47;26.73;52949.44;5069947;28;20052;-66
2022/08/11 12:28:13;;;;;;;7.85;2.47;;;;;;;-144.47;26.16;52953.41;5081215;28;20084;-65
2022/08/11 12:30:40;;;;;;;10.00;2.58;;;;;;;-144.47;26.44;52961.34;5094595;28;20419;-62
2022/08/11 12:33:07;;;;;;;6.65;2.67;;;;;;;-144.47;26.32;52899.78;5089024;28;20035;-66
2022/08/11 12:35:34;;;;;;;12.43;3.05;;;;;;;-144.47;26.49;52931.56;5074108;28;20028;-63
2022/08/11 12:38:02;;;;;;;7.53;2.60;;;;;;;-144.47;26.33;52931.56;5052343;28;20021;-65
2022/08/11 12:46:05;;;;;;;22.90;3.15;;;;;;;-144.47;26.34;52931.56;5077014;28;20117;-65
2022/08/11 12:54:27;;;;;;;12.63;2.80;;;;;;;-144.47;25.64;52927.59;5090927;28;20046;-63
2022/08/11 13:05:16;;;;;;;8.45;2.40;;;;;;;-144.47;24.63;52881.91;5090294;28;20394;-65
2022/08/11 13:07:44;;;;;;;14.98;2.53;;;;;;;-144.47;24.69;52873.97;5071247;28;20102;-65
2022/08/11 13:10:11;;;;;;;;;;;;;;;-144.47;24.70;52911.69;5056815;28;20020;-66
2022/08/11 13:12:47;;;;;;;8.43;2.63;;;;;;;-144.47;24.31;52887.88;5089489;28;20365;-63
2022/08/11 13:15:16;;;;;;;8.32;2.50;;;;;;;-144.47;23.85;52875.94;5054277;28;20054;-68
2022/08/11 13:17:42;;;;;;;13.82;2.65;;;;;;;-144.47;23.51;52832.25;5086459;28;20024;-64
2022/08/11 13:20:12;;;;;;;11.30;2.80;;;;;;;-144.47;23.14;52850.13;5066563;28;20031;-64
2022/08/11 13:22:44;;;;;;;8.73;2.63;;;;;;;-144.47;22.73;52854.09;5109967;28;20019;-65
2022/08/11 13:25:12;;;;;;;8.70;2.55;;;;;;;-144.47;22.61;52860.06;5076816;28;20034;-66
2022/08/11 13:27:38;;;;;;;21.67;3.00;;;;;;;-144.47;22.73;52840.19;5075994;28;20019;-65
2022/08/11 13:32:48;;;;;;;5.90;2.40;;;;;;;-144.47;22.80;52856.09;5071587;28;20618;-65
2022/08/11 13:35:14;;;;;;;5.28;2.17;;;;;;;-144.47;22.68;52828.28;5072919;28;20106;-66
2022/08/11 13:37:43;;;;;;;10.13;2.75;;;;;;;-144.47;23.20;52870.00;5096311;28;20024;-65
2022/08/11 13:40:10;;;;;;;5.43;2.17;;;;;;;-144.47;22.96;52836.22;5085592;28;20027;-64
2022/08/11 13:42:38;;;;;;;8.95;2.40;;;;;;;-144.47;22.67;52820.34;5081702;28;20475;-67
2022/08/11 13:45:06;;;;;;;;;;;;;;;-144.47;22.55;52848.16;5075526;28;20440;-68
2022/08/11 13:47:33;;;;;;;6.65;2.30;;;;;;;-144.47;22.06;52832.25;5091758;28;19908;-64
2022/08/11 13:49:59;;;;;;;11.00;2.50;;;;;;;-144.47;21.62;52828.28;5058862;28;20024;-65
2022/08/11 13:52:26;;;;;;;12.23;2.97;;;;;;;-144.47;21.83;52790.56;5057348;28;20095;-63
2022/08/11 13:54:53;;;;;;;6.45;2.70;;;;;;;-144.47;21.99;52796.50;5058647;28;20024;-64
2022/08/11 13:57:20;;;;;;;9.57;2.50;;;;;;;-144.47;21.34;52792.53;5074279;28;20032;-67
2022/08/11 13:59:50;;;;;;;7.57;2.50;;;;;;;-144.47;21.42;52794.53;5092599;28;20039;-67
2022/08/11 14:02:17;;;;;;;9.35;2.90;;;;;;;-144.47;21.46;52804.44;5074975;28;20020;-67
2022/08/11 14:04:45;;;;;;;6.60;2.42;;;;;;;-144.47;21.61;52812.41;5092206;28;20401;-66
2022/08/11 14:07:15;;;;;;;10.27;2.20;;;;;;;-144.47;21.81;52818.34;5091275;28;20539;-66
2022/08/11 14:09:44;;;;;;;9.10;3.08;;;;;;;-144.47;21.69;52808.44;5092567;28;20031;-65
2022/08/11 14:15:04;;;;;;;13.68;2.53;;;;;;;-144.47;21.00;52776.66;5092986;28;20085;-66
2022/08/11 14:17:34;;;;;;;7.60;2.58;;;;;;;-144.47;20.99;52764.72;5056775;28;20458;-65
2022/08/11 14:20:05;;;;;;;11.57;2.70;;;;;;;-144.47;20.95;52760.75;5112025;28;20028;-66
2022/08/11 14:22:32;;;;;;;6.93;2.40;;;;;;;-144.47;21.41;52818.34;5077314;28;20148;-66
2022/08/11 14:24:57;;;;;;;5.10;2.38;;;;;;;-144.47;21.62;52790.56;5112861;28;20085;-65
2022/08/11 14:27:30;;;;;;;10.00;2.90;;;;;;;-144.47;21.64;52812.41;5112227;28;20369;-73
2022/08/11 14:29:56;;;;;;;7.45;2.78;;;;;;;-144.47;21.92;52814.38;5095409;28;20520;-67
2022/08/11 14:32:23;;;;;;;5.93;2.22;;;;;;;-144.47;21.99;52802.47;5112031;28;20106;-66
2022/08/11 14:34:49;;;;;;;6.87;2.40;;;;;;;-144.47;21.82;52812.41;5086899;28;20040;-64
2022/08/11 14:37:21;;;;;;;19.58;3.22;;;;;;;-144.47;21.56;52792.53;5092639;28;20496;-67
2022/08/11 14:39:52;;;;;;;14.90;2.75;;;;;;;-144.47;21.49;52812.41;5084859;28;20482;-66
2022/08/11 14:48:00;;;;;;;17.02;2.78;;;;;;;-144.47;20.97;52782.59;5091120;28;20086;-65
2022/08/11 14:50:29;;;;;;;8.80;2.78;;;;;;;-144.47;20.89;52734.94;5091969;28;20020;-64
2022/08/11 14:52:59;;;;;;;7.68;2.50;;;;;;;-144.47;21.42;52798.50;5090891;28;20445;-66
2022/08/11 14:58:12;;;;;;;6.82;2.50;;;;;;;-144.47;21.48;52782.59;5078769;28;20050;-66
2022/08/11 15:00:40;;;;;;;9.63;2.33;;;;;;;-144.47;21.04;52818.34;5046597;28;20024;-68
2022/08/11 15:03:09;;;;;;;12.88;2.47;;;;;;;-144.47;20.79;52766.72;5047580;28;20035;-66
2022/08/11 15:05:40;;;;;;;13.50;2.80;;;;;;;-144.47;21.20;52728.97;5055722;28;20020;-67
2022/08/11 15:08:07;;;;;;;11.18;2.55;;;;;;;-144.47;21.80;52786.56;5077945;28;20027;-66
2022/08/11 15:10:33;;;;;;;14.43;2.22;;;;;;;-144.47;22.01;52804.44;5074051;28;20024;-65
2022/08/11 15:13:00;;;;;;;6.65;2.45;;;;;;;-144.47;21.81;52800.47;5099450;28;20051;-67
2022/08/11 15:18:15;;;;;;;6.18;2.50;;;;;;;-144.47;21.74;52786.56;5074503;28;20453;-64
2022/08/11 15:37:25;;;;;;;6.50;2.17;;;;;;;-144.47;21.42;52820.34;5096904;28;20046;-64
2022/08/11 15:37:30;;;;;;;6.68;2.50;;;;;;;-144.47;21.39;52790.56;5076451;28;20084;-66
2022/08/11 15:46:06;;;;;;;14.32;2.63;;;;;;;-144.47;21.19;52822.31;5091281;28;20093;-69
2022/08/11 15:48:31;;;;;;;6.80;2.35;;;;;;;-144.47;21.17;52792.53;5071553;28;20107;-66
2022/08/11 15:51:04;;;;;;;10.77;3.08;;;;;;;-144.47;21.21;52780.63;5070946;28;20103;-67
2022/08/11 15:53:50;;;;;;;18.42;2.80;;;;;;;-144.47;21.10;52804.44;5051652;28;20021;-67
2022/08/11 15:56:18;;;;;;;9.88;2.25;;;;;;;-144.47;21.26;52772.69;5077517;28;20028;-65
2022/08/11 16:04:23;;;;;;;11.35;2.75;;;;;;;-144.47;21.24;52768.69;5067872;28;20061;-66
2022/08/11 16:06:59;;;;;;;6.60;2.40;;;;;;;-144.47;21.60;52760.75;5101210;28;20023;-66
2022/08/11 16:09:45;;;;;;;12.23;2.55;;;;;;;-144.47;21.22;52770.69;5089488;28;20036;-65
2022/08/11 16:12:14;;;;;;;7.05;2.28;;;;;;;-144.47;21.47;52782.59;5090083;28;20051;-67
2022/08/11 16:17:36;;;;;;;10.43;2.40;;;;;;;-144.47;21.71;52814.38;5079025;28;20038;-66
2022/08/11 16:20:04;;;;;;;12.80;2.50;;;;;;;-144.47;21.66;52834.25;5059311;28;20739;-64
2022/08/11 16:22:43;;;;;;;;;;;;;;;-144.47;21.69;52788.56;5080186;28;20782;-67
2022/08/11 16:25:14;;;;;;;14.45;2.92;;;;;;;-144.47;21.45;52778.63;5054438;28;20745;-65
2022/08/11 16:27:46;;;;;;;11.57;2.33;;;;;;;-144.47;21.65;52764.72;5077339;28;20109;-67
2022/08/11 16:30:14;;;;;;;11.15;2.70;;;;;;;-144.47;21.50;52786.56;5079187;28;20891;-68
2022/08/11 16:32:44;;;;;;;11.55;2.30;;;;;;;-144.47;21.40;52788.56;5079853;28;20063;-66
2022/08/11 16:38:46;;;;;;;9.70;2.70;;;;;;;-144.47;21.57;52822.31;5080169;28;20172;-65
2022/08/11 16:40:51;;;;;;;10.80;2.35;;;;;;;-144.47;21.32;52804.44;5073591;28;20044;-68
2022/08/11 16:48:52;;;;;;;7.30;3.17;;;;;;;-144.47;21.71;52810.41;5078920;28;20703;-70
2022/08/11 16:51:19;;;;;;;16.95;3.35;;;;;;;-144.47;21.86;52826.31;5055663;28;20024;-68
2022/08/11 16:53:46;;;;;;;7.38;2.67;;;;;;;-144.47;21.79;52836.22;5058091;28;20044;-70